Decoded Metar for KAGC (PITTSBURGH/ALLEG in PA, USA) (IATA:AGC) | Meteo·Mobile Aviation Weather
aviador You're here:

KAGC Decoded Metar

PITTSBURGH/ALLEG in PA, USA
Report Time2019-03-21 15:53:00
UTC Time2019-03-21 16:27:06
Flight Rules vfr VFR
Wind350° at 03 kt
W.Decomp.*RWY 31: 2.0 kt HW 2.3 kt RCW
RWY 28: 0.6 kt HW 2.9 kt RCW
W.Rank350° ranks 18
Current wind is below 350° avg. (6.0)
Visibility9999 m
Phenomena:N/A
Clouds:Overcast 060 Hf
Expected CloudBase > 4,800 ft AGL from Temp-Dew spread
Ceiling6,000 ft
Temp09°C (ISA -3)
Dew Point-3°C (43% RH)
AAT5.5°C
QNH1012 hPa
Density Alt968 ft
Elevation1,276 ft
Report Wrong Elevation
Raw Report
KAGC 211553Z 35003KT 10SM OVC060 09/M03 A2987 RMK AO2 SLP123
T00941028=

Extra information for KAGC:More info

Metar Taf Metar & Taf Last 4 Metars F.Rules Stats Wind Profile Meteogram Temp Stats Airport Information Weather charts Add Link Nearby VenuesMetar ALERT Operation Metar Decoded Social comments

AIRNAV info for KAGC